Time;durP1;ratioP1;P1;durP2;ratioP2;P2;SDS_P1;SDS_P2;PMS_P1;PMS_P2;Temp;Humidity;BMP_temperature;BMP_pressure;BME280_temperature;BME280_humidity;BME280_pressure;Samples;Min_cycle;Max_cycle;Signal;HPM_P1;HPM_P2
2022/11/04 00:01:46;;;;;;;18.25;11.98;;;25.30;99.90;;;;;;5074076;28;20149;-49
2022/11/04 00:04:14;;;;;;;17.23;10.80;;;25.30;99.90;;;;;;5074668;28;20017;-50
2022/11/04 00:06:40;;;;;;;21.00;11.18;;;25.30;99.90;;;;;;5074257;28;20123;-50
2022/11/04 00:09:09;;;;;;;20.30;12.40;;;25.30;99.90;;;;;;5060181;28;20546;-49
2022/11/04 00:14:20;;;;;;;21.23;12.95;;;25.30;99.90;;;;;;5065265;28;20113;-50
2022/11/04 00:30:28;;;;;;;20.52;11.90;;;25.30;99.90;;;;;;5061091;28;20099;-50
2022/11/04 00:35:38;;;;;;;17.58;11.25;;;25.30;99.90;;;;;;5064022;28;20048;-50
2022/11/04 00:38:03;;;;;;;19.83;11.68;;;25.30;99.90;;;;;;5073592;28;20024;-49
2022/11/04 00:40:30;;;;;;;15.80;10.50;;;25.30;99.90;;;;;;5073185;28;20131;-50
2022/11/04 00:42:56;;;;;;;16.83;11.27;;;25.30;99.90;;;;;;5073825;28;20098;-50
2022/11/04 00:45:21;;;;;;;22.90;11.35;;;25.30;99.90;;;;;;5072336;28;20036;-49
2022/11/04 00:47:47;;;;;;;20.27;10.75;;;25.20;99.90;;;;;;5060094;28;20017;-50
2022/11/04 00:50:13;;;;;;;19.60;11.43;;;25.20;99.90;;;;;;5054651;28;20028;-50
2022/11/04 00:52:38;;;;;;;19.83;11.57;;;25.20;99.90;;;;;;5058693;28;20555;-49
2022/11/04 00:55:05;;;;;;;15.45;11.35;;;25.20;99.90;;;;;;5060680;28;20128;-50
2022/11/04 00:57:31;;;;;;;22.05;12.73;;;25.20;99.90;;;;;;5061084;28;21123;-50
2022/11/04 00:59:57;;;;;;;18.73;12.20;;;25.20;99.90;;;;;;5062469;23;20507;-48
2022/11/04 01:02:23;;;;;;;16.42;11.45;;;25.20;99.90;;;;;;5068998;28;20029;-48
2022/11/04 01:04:48;;;;;;;20.02;11.63;;;25.20;99.90;;;;;;5060151;28;20037;-48
2022/11/04 01:07:14;;;;;;;19.35;11.68;;;25.20;99.90;;;;;;5066883;28;20373;-48
2022/11/04 01:09:40;;;;;;;15.30;10.88;;;25.20;99.90;;;;;;5068836;28;20024;-49
2022/11/04 01:12:06;;;;;;;20.48;11.98;;;25.20;99.90;;;;;;5065772;28;20028;-48
2022/11/04 01:14:31;;;;;;;17.48;12.20;;;25.20;99.90;;;;;;5068225;28;20021;-47
2022/11/04 01:16:57;;;;;;;18.20;12.60;;;25.20;99.90;;;;;;5072005;28;20037;-48
2022/11/04 01:19:23;;;;;;;17.85;11.65;;;25.20;99.90;;;;;;5066804;28;20020;-48
2022/11/04 01:21:52;;;;;;;17.83;11.68;;;25.20;99.90;;;;;;5066735;28;20404;-47
2022/11/04 01:24:18;;;;;;;15.55;10.85;;;25.20;99.90;;;;;;5050877;28;20064;-48
2022/11/04 01:26:44;;;;;;;18.17;11.50;;;25.20;99.90;;;;;;5062783;28;20087;-47
2022/11/04 01:29:09;;;;;;;17.38;11.70;;;25.20;99.90;;;;;;5061811;28;20040;-48
2022/11/04 01:31:35;;;;;;;15.57;11.85;;;25.20;99.90;;;;;;5064670;28;20025;-48
2022/11/04 01:34:01;;;;;;;19.50;12.57;;;25.10;99.90;;;;;;5063587;28;20009;-47
2022/11/04 01:36:27;;;;;;;26.33;11.82;;;25.20;99.90;;;;;;5064002;28;20062;-48
2022/11/04 01:38:56;;;;;;;17.45;11.85;;;25.10;99.90;;;;;;5063885;28;20123;-48
2022/11/04 01:41:28;;;;;;;22.80;12.77;;;25.10;99.90;;;;;;5056891;28;20021;-47
2022/11/04 01:43:55;;;;;;;17.67;11.75;;;25.10;99.90;;;;;;5057400;28;20549;-48
2022/11/04 01:46:43;;;;;;;16.52;11.02;;;25.10;99.90;;;;;;5057158;28;20037;-48
2022/11/04 01:49:27;;;;;;;15.85;11.05;;;25.10;99.90;;;;;;5069019;28;20085;-46
2022/11/04 01:51:59;;;;;;;20.95;12.32;;;25.10;99.90;;;;;;5055428;28;20047;-47
2022/11/04 01:54:26;;;;;;;16.42;11.40;;;25.10;99.90;;;;;;5064339;28;20107;-47
2022/11/04 01:56:53;;;;;;;16.83;11.15;;;25.00;99.90;;;;;;5061410;28;20066;-47
2022/11/04 01:59:27;;;;;;;15.57;10.90;;;25.10;99.90;;;;;;5056189;28;20015;-47
2022/11/04 02:01:53;;;;;;;15.63;11.05;;;25.10;99.90;;;;;;5074191;28;20434;-46
2022/11/04 02:04:25;;;;;;;14.63;10.18;;;25.10;99.90;;;;;;5070990;28;20032;-46
2022/11/04 02:07:05;;;;;;;14.55;10.13;;;25.10;99.90;;;;;;5072556;28;20029;-46
2022/11/04 02:09:33;;;;;;;16.45;11.57;;;25.00;99.90;;;;;;5070666;28;20025;-45
2022/11/04 02:14:46;;;;;;;16.52;10.35;;;25.00;99.90;;;;;;5072495;28;20044;-45
2022/11/04 02:17:18;;;;;;;14.55;10.68;;;25.10;99.90;;;;;;5072829;28;20492;-47
2022/11/04 02:19:52;;;;;;;14.75;10.48;;;25.10;99.90;;;;;;5072528;28;20111;-48
2022/11/04 02:22:56;;;;;;;14.88;9.77;;;25.10;99.90;;;;;;5072481;28;20025;-47
2022/11/04 02:25:31;;;;;;;15.73;10.00;;;25.10;99.90;;;;;;4999021;28;20502;-47
2022/11/04 02:28:12;;;;;;;15.70;10.85;;;25.10;99.90;;;;;;5063106;28;20053;-50
2022/11/04 02:31:07;;;;;;;14.52;9.80;;;25.00;99.90;;;;;;5034459;28;20075;-49
2022/11/04 02:33:52;;;;;;;15.45;9.45;;;25.10;99.90;;;;;;5045356;28;20086;-48
2022/11/04 02:36:55;;;;;;;14.82;10.15;;;25.10;99.90;;;;;;5076450;28;20464;-48
2022/11/04 02:39:40;;;;;;;12.40;9.15;;;25.10;99.90;;;;;;5076308;28;20417;-45
2022/11/04 02:42:33;;;;;;;15.88;11.27;;;25.10;99.90;;;;;;5076239;28;20024;-45
2022/11/04 02:45:08;;;;;;;19.25;10.32;;;25.10;99.90;;;;;;5075817;28;20043;-47
2022/11/04 02:47:37;;;;;;;14.63;8.95;;;25.00;99.90;;;;;;5075912;28;20016;-46
2022/11/04 02:50:44;;;;;;;17.65;10.82;;;25.00;99.90;;;;;;5076207;28;20020;-46
2022/11/04 02:53:16;;;;;;;;;;;25.00;99.90;;;;;;5007137;28;20033;-46
2022/11/04 02:55:48;;;;;;;13.55;8.93;;;25.00;99.90;;;;;;5072121;28;19998;-47
2022/11/04 02:58:20;;;;;;;14.82;8.75;;;25.00;99.90;;;;;;5059737;28;20025;-48
2022/11/04 03:00:49;;;;;;;16.67;9.45;;;25.10;99.90;;;;;;5045031;22;20056;-51
2022/11/04 03:03:21;;;;;;;15.60;9.23;;;25.00;99.90;;;;;;5018750;28;20026;-52
2022/11/04 03:05:51;;;;;;;14.38;8.85;;;25.00;99.90;;;;;;5020207;28;20026;-55
2022/11/04 03:08:37;;;;;;;13.40;8.65;;;25.00;99.90;;;;;;5015168;28;20045;-51
2022/11/04 03:11:15;;;;;;;12.48;8.55;;;25.00;99.90;;;;;;5015373;28;20378;-52
2022/11/04 03:13:46;;;;;;;13.63;8.02;;;25.00;99.90;;;;;;5015270;28;20117;-51
2022/11/04 03:16:18;;;;;;;15.63;9.15;;;25.00;99.90;;;;;;5031289;28;20044;-49
2022/11/04 03:18:55;;;;;;;13.57;8.70;;;25.00;99.90;;;;;;5021240;28;20018;-47
2022/11/04 03:21:23;;;;;;;10.93;7.65;;;25.00;99.90;;;;;;5028298;28;20022;-51
2022/11/04 03:23:49;;;;;;;11.90;8.13;;;25.00;99.90;;;;;;5035170;28;20109;-51
2022/11/04 03:26:21;;;;;;;11.35;7.95;;;25.00;99.90;;;;;;5031660;28;20093;-51
2022/11/04 03:29:08;;;;;;;9.88;7.05;;;25.00;99.90;;;;;;5032643;28;20032;-48
2022/11/04 03:32:03;;;;;;;11.93;8.07;;;25.00;99.90;;;;;;5034929;28;20030;-50
2022/11/04 03:34:29;;;;;;;11.38;8.00;;;25.00;99.90;;;;;;5031093;28;20030;-50
2022/11/04 03:36:55;;;;;;;11.85;6.93;;;25.00;99.90;;;;;;5034695;28;20036;-49
2022/11/04 03:39:21;;;;;;;9.93;7.07;;;25.00;99.90;;;;;;5034900;28;20429;-48
2022/11/04 03:41:51;;;;;;;11.32;6.97;;;25.00;99.90;;;;;;5010582;28;20057;-49
2022/11/04 03:44:17;;;;;;;12.20;7.13;;;25.00;99.90;;;;;;5032752;28;20025;-49
2022/11/04 03:46:43;;;;;;;11.68;7.85;;;25.00;99.90;;;;;;5034432;28;20025;-51
2022/11/04 03:49:10;;;;;;;10.13;6.68;;;25.00;99.90;;;;;;5020551;28;20390;-48
2022/11/04 03:51:36;;;;;;;12.15;7.95;;;25.00;99.90;;;;;;5015227;28;20034;-50
2022/11/04 03:54:02;;;;;;;9.73;7.00;;;25.00;99.90;;;;;;5019818;28;20130;-51
2022/11/04 03:56:30;;;;;;;12.05;6.50;;;25.00;99.90;;;;;;5034482;28;20032;-51
2022/11/04 03:59:24;;;;;;;9.02;6.40;;;25.00;99.90;;;;;;5034559;28;20547;-50
2022/11/04 04:01:55;;;;;;;10.30;6.50;;;25.00;99.90;;;;;;5027144;28;20125;-50
2022/11/04 04:04:32;;;;;;;9.70;6.07;;;25.00;99.90;;;;;;5029317;28;20038;-51
2022/11/04 04:07:08;;;;;;;9.68;6.15;;;24.90;99.90;;;;;;5036542;28;20029;-50
2022/11/04 04:09:41;;;;;;;10.90;6.88;;;25.00;99.90;;;;;;5053134;28;20040;-50
2022/11/04 04:12:23;;;;;;;8.15;5.93;;;25.00;99.90;;;;;;5053641;28;20017;-50
2022/11/04 04:14:53;;;;;;;9.45;6.00;;;25.00;99.90;;;;;;5049263;28;20076;-50
2022/11/04 04:17:41;;;;;;;8.90;5.32;;;24.90;99.90;;;;;;5037719;28;20017;-50
2022/11/04 04:20:23;;;;;;;10.68;5.63;;;24.90;99.90;;;;;;5018741;28;20017;-51
2022/11/04 04:22:55;;;;;;;8.60;5.68;;;25.00;99.90;;;;;;5037089;28;20021;-56
2022/11/04 04:28:13;;;;;;;6.70;5.18;;;24.90;99.90;;;;;;5028961;28;20386;-50
2022/11/04 04:30:42;;;;;;;9.52;4.50;;;24.90;99.90;;;;;;5037688;28;20184;-50
2022/11/04 04:33:14;;;;;;;8.07;5.60;;;24.90;99.90;;;;;;5039833;28;20020;-49
2022/11/04 04:35:55;;;;;;;8.27;5.63;;;24.90;99.90;;;;;;5038376;28;20493;-49
2022/11/04 04:47:18;;;;;;;7.30;4.82;;;24.80;99.90;;;;;;5054352;28;20094;-50
2022/11/04 04:49:51;;;;;;;8.05;4.78;;;24.80;99.90;;;;;;5054102;28;20017;-50
2022/11/04 04:52:18;;;;;;;8.88;4.75;;;24.80;99.90;;;;;;5053008;28;20032;-51
2022/11/04 04:54:44;;;;;;;5.78;3.97;;;24.80;99.90;;;;;;5035513;28;20469;-49
2022/11/04 04:57:10;;;;;;;6.22;4.50;;;24.80;99.90;;;;;;5053967;28;20024;-49
2022/11/04 04:59:36;;;;;;;5.93;3.88;;;24.80;99.90;;;;;;5063536;22;20064;-47
2022/11/04 05:02:02;;;;;;;5.03;3.80;;;24.80;99.90;;;;;;5035201;28;20072;-47
2022/11/04 05:04:28;;;;;;;6.00;4.30;;;24.80;99.90;;;;;;5016504;28;20061;-47
2022/11/04 05:06:54;;;;;;;5.30;4.18;;;24.80;99.90;;;;;;5033933;28;20453;-47
2022/11/04 05:09:20;;;;;;;8.20;3.50;;;24.80;99.90;;;;;;5033794;28;20021;-47
2022/11/04 05:11:45;;;;;;;5.05;3.65;;;24.80;99.90;;;;;;5033822;28;20079;-47
2022/11/04 05:14:11;;;;;;;4.40;3.22;;;24.80;99.90;;;;;;5033842;28;20033;-47
2022/11/04 05:16:37;;;;;;;5.57;3.50;;;24.80;99.90;;;;;;5033792;28;20580;-47
2022/11/04 05:19:03;;;;;;;3.72;3.10;;;24.70;99.90;;;;;;5033569;28;20497;-48
2022/11/04 05:21:28;;;;;;;5.20;3.75;;;24.70;99.90;;;;;;5033573;28;20117;-47
2022/11/04 05:23:54;;;;;;;6.07;3.60;;;24.70;99.90;;;;;;5033461;28;20385;-47
2022/11/04 05:26:20;;;;;;;6.05;3.60;;;24.70;99.90;;;;;;5033687;28;20033;-47
2022/11/04 05:28:46;;;;;;;4.45;3.30;;;24.70;99.90;;;;;;5033611;28;20021;-48
2022/11/04 05:31:12;;;;;;;5.60;3.92;;;24.70;99.90;;;;;;5015952;28;20112;-48
2022/11/04 05:33:38;;;;;;;6.82;3.95;;;24.70;99.90;;;;;;5033586;28;20369;-48
2022/11/04 05:36:14;;;;;;;6.60;3.55;;;24.70;99.90;;;;;;5033400;28;20087;-45
2022/11/04 05:38:40;;;;;;;5.43;3.50;;;24.70;99.90;;;;;;5033507;28;20037;-45
2022/11/04 05:41:08;;;;;;;3.83;2.95;;;24.70;99.90;;;;;;5033331;28;20033;-46
2022/11/04 05:43:34;;;;;;;5.93;3.67;;;24.70;99.90;;;;;;5033325;28;20029;-47
2022/11/04 05:46:01;;;;;;;4.70;3.47;;;24.70;99.90;;;;;;5015513;28;20080;-46
2022/11/04 05:48:27;;;;;;;5.35;3.47;;;24.70;99.90;;;;;;5033418;28;20018;-47
2022/11/04 05:50:53;;;;;;;4.05;2.83;;;24.70;99.90;;;;;;5033149;28;20567;-46
2022/11/04 05:53:18;;;;;;;5.30;3.40;;;24.70;99.90;;;;;;5033149;28;20025;-46
2022/11/04 05:55:44;;;;;;;4.40;3.25;;;24.70;99.90;;;;;;5033346;28;20087;-46
2022/11/04 05:58:10;;;;;;;4.78;3.55;;;24.70;99.90;;;;;;5033289;28;20087;-47
2022/11/04 06:00:36;;;;;;;4.60;2.92;;;24.70;99.90;;;;;;5023766;28;20053;-47
2022/11/04 06:03:02;;;;;;;4.70;3.08;;;24.70;99.90;;;;;;5013311;28;20598;-48
2022/11/04 06:05:28;;;;;;;4.82;2.97;;;24.70;99.90;;;;;;5013136;28;20479;-48
2022/11/04 06:07:55;;;;;;;4.03;2.92;;;24.70;99.90;;;;;;5017165;28;20022;-47
2022/11/04 06:10:21;;;;;;;5.25;3.22;;;24.60;99.90;;;;;;5017449;28;20035;-47
2022/11/04 06:12:47;;;;;;;4.30;3.38;;;24.70;99.90;;;;;;5017302;28;20029;-47
2022/11/04 06:15:13;;;;;;;4.10;2.83;;;24.70;99.90;;;;;;5017305;28;20433;-47
2022/11/04 06:17:39;;;;;;;4.43;3.20;;;24.70;99.90;;;;;;5017342;28;20033;-47
2022/11/04 06:20:05;;;;;;;4.97;2.78;;;24.70;99.90;;;;;;5016961;28;20077;-47
2022/11/04 06:22:31;;;;;;;3.58;2.70;;;24.70;99.90;;;;;;5017242;28;20044;-47
2022/11/04 06:24:57;;;;;;;3.63;2.80;;;24.70;99.90;;;;;;5017138;28;20026;-46
2022/11/04 06:27:23;;;;;;;4.85;3.28;;;24.60;99.90;;;;;;5017125;28;20025;-47
2022/11/04 06:29:48;;;;;;;4.40;2.63;;;24.60;99.90;;;;;;5017243;28;20037;-47
2022/11/04 06:32:16;;;;;;;3.80;2.75;;;24.60;99.90;;;;;;5016957;28;20459;-47
2022/11/04 06:34:41;;;;;;;;;;;24.60;99.90;;;;;;5017337;28;20052;-48
2022/11/04 06:37:08;;;;;;;3.92;2.70;;;24.60;99.90;;;;;;5016955;28;19995;-48
2022/11/04 06:39:34;;;;;;;3.75;2.97;;;24.60;99.90;;;;;;5016959;28;20018;-47
2022/11/04 06:42:01;;;;;;;3.70;2.72;;;24.60;99.90;;;;;;5016958;28;20026;-47
2022/11/04 06:44:26;;;;;;;4.15;2.08;;;24.60;99.90;;;;;;5016686;28;20030;-47
2022/11/04 06:46:52;;;;;;;3.60;2.75;;;24.70;99.90;;;;;;5016815;28;20037;-47
2022/11/04 06:49:20;;;;;;;4.03;2.80;;;24.60;99.90;;;;;;5016681;28;20029;-47
2022/11/04 06:51:47;;;;;;;5.20;2.70;;;24.60;99.90;;;;;;4999015;28;20445;-47
2022/11/04 06:54:13;;;;;;;6.63;3.45;;;24.60;99.90;;;;;;5016538;28;20087;-47
2022/11/04 06:56:39;;;;;;;4.97;2.60;;;24.60;99.90;;;;;;5016557;28;20017;-47
2022/11/04 06:59:06;;;;;;;3.35;2.33;;;24.60;99.90;;;;;;5016491;28;20259;-47
2022/11/04 07:01:35;;;;;;;4.07;2.73;;;24.60;99.90;;;;;;5012195;28;20045;-47
2022/11/04 07:04:01;;;;;;;4.40;2.95;;;24.60;99.90;;;;;;5016306;28;20331;-47
2022/11/04 07:06:28;;;;;;;3.38;2.63;;;24.70;99.90;;;;;;5016479;28;20092;-48
2022/11/04 07:08:57;;;;;;;4.88;3.05;;;24.60;99.90;;;;;;5016210;28;20025;-47
2022/11/04 07:11:24;;;;;;;4.65;2.55;;;24.60;99.90;;;;;;5016257;28;20025;-47
2022/11/04 07:13:50;;;;;;;5.63;2.60;;;24.70;99.90;;;;;;5016439;28;20116;-47
2022/11/04 07:16:17;;;;;;;4.45;2.85;;;24.60;99.90;;;;;;5016376;28;20026;-47
2022/11/04 07:18:43;;;;;;;5.32;2.92;;;24.70;99.90;;;;;;5015958;28;20062;-47
2022/11/04 07:21:10;;;;;;;4.93;2.80;;;24.60;99.90;;;;;;5016120;28;20026;-47
2022/11/04 07:23:36;;;;;;;3.65;2.30;;;24.70;99.90;;;;;;5016151;28;20393;-47
2022/11/04 07:26:05;;;;;;;5.90;3.13;;;24.70;99.90;;;;;;5015988;28;20042;-47
2022/11/04 07:28:31;;;;;;;3.63;2.53;;;24.70;99.90;;;;;;5015991;28;20100;-47
2022/11/04 07:30:59;;;;;;;4.30;3.23;;;24.70;99.90;;;;;;5015860;28;20022;-47
2022/11/04 07:33:25;;;;;;;5.00;3.20;;;24.70;99.90;;;;;;5015730;28;20022;-45
2022/11/04 07:35:52;;;;;;;4.25;2.53;;;24.70;99.90;;;;;;5015751;28;20022;-45
2022/11/04 07:38:19;;;;;;;3.97;2.85;;;24.80;99.90;;;;;;5015705;28;20037;-45
2022/11/04 07:40:48;;;;;;;4.15;2.95;;;24.80;99.90;;;;;;5015518;28;20462;-45
2022/11/04 07:43:14;;;;;;;3.72;2.58;;;24.80;99.90;;;;;;5015607;28;20040;-45
2022/11/04 07:45:40;;;;;;;3.90;2.80;;;24.80;99.90;;;;;;5015567;28;20026;-49
2022/11/04 07:48:06;;;;;;;4.40;2.53;;;24.80;99.90;;;;;;5015580;28;20533;-45
2022/11/04 07:50:32;;;;;;;4.00;2.25;;;24.80;99.90;;;;;;5015617;28;20096;-46
2022/11/04 07:52:59;;;;;;;4.25;2.50;;;24.90;99.90;;;;;;5015472;28;20469;-46
2022/11/04 07:55:25;;;;;;;4.33;2.87;;;24.90;99.90;;;;;;5015330;28;20022;-46
2022/11/04 07:57:53;;;;;;;3.67;2.78;;;24.90;99.90;;;;;;5014065;28;20022;-46
2022/11/04 08:00:19;;;;;;;5.07;2.83;;;25.00;99.90;;;;;;5015047;28;20054;-46
2022/11/04 08:02:45;;;;;;;4.85;2.40;;;25.00;99.90;;;;;;4997804;28;20105;-46
2022/11/04 08:05:12;;;;;;;3.70;2.35;;;25.00;99.90;;;;;;5015080;28;20076;-46
2022/11/04 08:07:38;;;;;;;4.93;2.90;;;25.00;99.90;;;;;;5015156;28;20431;-46
2022/11/04 08:10:04;;;;;;;4.35;2.80;;;25.00;99.90;;;;;;5015065;28;20467;-46
2022/11/04 08:12:31;;;;;;;6.72;2.85;;;25.00;99.90;;;;;;5014885;28;20022;-46
2022/11/04 08:14:58;;;;;;;3.33;2.60;;;25.10;99.90;;;;;;5014896;28;20026;-46
2022/11/04 08:17:23;;;;;;;5.03;4.05;;;25.20;99.90;;;;;;5014717;28;20026;-45
2022/11/04 08:19:49;;;;;;;6.38;3.20;;;25.10;99.90;;;;;;5014738;28;20025;-47
2022/11/04 08:22:15;;;;;;;7.03;3.30;;;25.10;99.90;;;;;;5014786;28;20026;-46
2022/11/04 08:24:41;;;;;;;7.38;3.15;;;25.20;99.90;;;;;;5014629;28;20061;-45
2022/11/04 08:27:07;;;;;;;7.30;3.47;;;25.20;99.90;;;;;;5014586;28;20478;-46
2022/11/04 08:29:33;;;;;;;5.53;3.08;;;25.20;99.90;;;;;;5013958;28;20029;-45
2022/11/04 08:31:59;;;;;;;5.83;3.50;;;25.20;99.90;;;;;;5014592;28;20057;-45
2022/11/04 08:34:25;;;;;;;6.63;3.95;;;25.30;99.90;;;;;;5014553;28;20062;-45
2022/11/04 08:36:56;;;;;;;4.85;3.05;;;25.30;99.90;;;;;;5014608;28;20386;-45
2022/11/04 08:39:22;;;;;;;4.95;3.13;;;25.30;99.90;;;;;;4996897;28;20029;-45
2022/11/04 08:41:49;;;;;;;6.72;3.55;;;25.30;99.90;;;;;;5014519;28;20026;-46
2022/11/04 08:44:15;;;;;;;6.30;3.42;;;25.40;99.90;;;;;;4996862;28;20492;-46
2022/11/04 08:46:43;;;;;;;6.93;3.53;;;25.40;99.90;;;;;;5014331;28;20367;-46
2022/11/04 08:49:09;;;;;;;5.60;2.92;;;25.40;99.90;;;;;;5014267;28;20021;-46
2022/11/04 08:51:37;;;;;;;7.43;3.67;;;25.40;99.90;;;;;;5014293;28;20036;-46
2022/11/04 08:54:04;;;;;;;5.20;2.88;;;25.50;99.90;;;;;;5014134;28;20335;-45
2022/11/04 08:56:33;;;;;;;5.72;3.20;;;25.50;99.90;;;;;;5014170;28;20427;-46
2022/11/04 08:59:01;;;;;;;6.82;3.75;;;25.50;99.90;;;;;;5014299;28;20022;-47
2022/11/04 09:01:28;;;;;;;5.30;3.28;;;25.50;99.90;;;;;;5013925;28;20410;-46
2022/11/04 09:03:53;;;;;;;5.28;3.00;;;25.60;99.90;;;;;;5014251;28;20022;-46
2022/11/04 09:06:26;;;;;;;3.80;2.67;;;25.60;99.90;;;;;;5013966;28;20052;-46
2022/11/04 09:08:55;;;;;;;7.22;3.47;;;25.60;99.90;;;;;;5013983;28;20482;-46
2022/11/04 09:11:22;;;;;;;5.38;3.22;;;25.70;99.90;;;;;;5014070;28;20021;-46
2022/11/04 09:13:47;;;;;;;4.30;3.28;;;25.70;99.90;;;;;;5014086;28;20041;-46
2022/11/04 09:16:14;;;;;;;6.55;3.47;;;25.70;99.90;;;;;;5013967;28;20113;-46
2022/11/04 09:18:40;;;;;;;6.28;3.50;;;25.80;99.90;;;;;;5013912;28;20537;-46
2022/11/04 09:21:07;;;;;;;5.18;3.28;;;25.80;99.90;;;;;;4996461;28;20026;-46
2022/11/04 09:23:33;;;;;;;7.05;3.42;;;25.80;99.90;;;;;;5013828;28;20029;-46
2022/11/04 09:26:05;;;;;;;5.72;3.22;;;25.80;99.90;;;;;;5013711;28;20042;-46
2022/11/04 09:28:31;;;;;;;4.90;3.38;;;25.90;99.90;;;;;;5013666;28;20101;-46
2022/11/04 09:30:57;;;;;;;5.20;3.67;;;25.90;99.90;;;;;;5013483;28;20534;-45
2022/11/04 09:33:23;;;;;;;5.93;3.20;;;25.90;99.90;;;;;;4995924;28;20486;-45
2022/11/04 09:35:56;;;;;;;4.65;3.28;;;26.00;99.90;;;;;;5013579;28;20030;-47
2022/11/04 09:38:23;;;;;;;6.05;3.20;;;26.00;99.90;;;;;;5013462;28;20459;-45
2022/11/04 09:40:49;;;;;;;6.40;3.58;;;26.10;99.90;;;;;;5013496;28;20022;-45
2022/11/04 09:43:36;;;;;;;5.43;3.60;;;26.10;99.90;;;;;;5013462;28;20052;-46
2022/11/04 09:46:03;;;;;;;6.18;4.10;;;26.10;99.90;;;;;;5013337;28;20038;-47
2022/11/04 09:48:32;;;;;;;6.22;3.80;;;26.20;99.90;;;;;;4996004;28;20026;-48
2022/11/04 09:51:03;;;;;;;6.05;3.55;;;26.30;99.90;;;;;;5013373;28;20054;-48
2022/11/04 09:53:50;;;;;;;6.35;4.78;;;26.30;99.90;;;;;;5013350;28;20026;-49
2022/11/04 09:56:19;;;;;;;6.38;4.28;;;26.40;99.90;;;;;;5013411;28;20081;-48
2022/11/04 09:58:45;;;;;;;6.00;4.13;;;26.50;99.90;;;;;;5013341;28;20105;-49
2022/11/04 10:01:17;;;;;;;4.50;3.45;;;26.50;99.90;;;;;;5006402;28;20042;-48
2022/11/04 10:03:57;;;;;;;5.07;3.50;;;26.60;99.90;;;;;;5013183;28;20505;-48
2022/11/04 10:06:40;;;;;;;6.95;4.20;;;26.60;99.90;;;;;;5013181;28;20041;-46
2022/11/04 10:09:24;;;;;;;6.47;4.35;;;26.70;99.90;;;;;;5012097;28;20018;-46
2022/11/04 10:11:50;;;;;;;6.38;4.35;;;26.70;99.90;;;;;;5013368;28;20026;-46
2022/11/04 10:14:34;;;;;;;5.93;4.45;;;26.70;99.90;;;;;;5013327;28;20033;-46
2022/11/04 10:17:14;;;;;;;7.82;4.90;;;26.80;99.90;;;;;;5013101;28;20026;-46
2022/11/04 10:19:47;;;;;;;5.90;4.07;;;26.80;99.90;;;;;;5013014;28;20084;-46
2022/11/04 10:22:32;;;;;;;6.97;4.15;;;26.90;99.90;;;;;;5013169;28;20041;-46
2022/11/04 10:25:20;;;;;;;5.72;3.95;;;27.00;99.90;;;;;;5011729;28;20030;-46
2022/11/04 10:27:47;;;;;;;6.50;4.45;;;27.00;99.90;;;;;;5013271;28;20030;-46
2022/11/04 10:30:14;;;;;;;6.97;4.38;;;27.00;99.90;;;;;;5013145;28;20184;-46
2022/11/04 10:33:11;;;;;;;7.60;4.10;;;27.00;99.90;;;;;;5013087;28;20053;-46
2022/11/04 10:35:57;;;;;;;8.60;3.97;;;27.10;99.90;;;;;;5013000;28;20022;-46
2022/11/04 10:38:47;;;;;;;6.35;4.10;;;27.10;99.90;;;;;;5013178;28;20431;-46
2022/11/04 10:41:33;;;;;;;5.80;3.80;;;27.20;99.90;;;;;;5013108;28;20141;-47
2022/11/04 10:44:03;;;;;;;6.18;3.60;;;27.10;99.90;;;;;;5012917;28;20022;-47
2022/11/04 10:46:41;;;;;;;6.80;4.50;;;27.20;99.90;;;;;;5012794;28;20494;-47
2022/11/04 10:49:19;;;;;;;6.05;4.00;;;27.20;99.90;;;;;;5012796;28;20057;-47
2022/11/04 10:51:45;;;;;;;5.22;3.88;;;27.10;99.90;;;;;;5013075;28;20022;-46
2022/11/04 10:54:10;;;;;;;5.75;3.72;;;27.20;99.90;;;;;;5016518;28;20481;-47
2022/11/04 10:56:39;;;;;;;5.80;3.78;;;27.10;99.90;;;;;;5016191;28;20526;-47
2022/11/04 10:59:37;;;;;;;5.65;3.92;;;27.20;99.90;;;;;;5016593;28;20030;-47
2022/11/04 11:02:03;;;;;;;5.55;3.55;;;27.10;99.90;;;;;;5016071;28;20054;-47
2022/11/04 11:04:32;;;;;;;7.63;3.83;;;27.20;99.90;;;;;;5016488;28;20037;-47
2022/11/04 11:07:00;;;;;;;4.68;3.20;;;27.20;99.90;;;;;;5016105;28;20022;-47
2022/11/04 11:09:34;;;;;;;4.90;3.40;;;27.20;99.90;;;;;;5016158;28;20018;-47
2022/11/04 11:12:17;;;;;;;5.13;3.17;;;27.30;99.90;;;;;;5016171;28;20030;-46
2022/11/04 11:14:42;;;;;;;6.47;3.28;;;27.30;99.90;;;;;;5015943;28;20034;-47
2022/11/04 11:17:14;;;;;;;5.25;3.13;;;27.40;99.90;;;;;;5016112;28;20022;-46
2022/11/04 11:20:13;;;;;;;4.55;3.60;;;27.40;99.90;;;;;;5016122;28;20022;-48
2022/11/04 11:22:41;;;;;;;6.43;4.00;;;27.40;99.90;;;;;;5004801;28;20501;-48
2022/11/04 11:25:26;;;;;;;5.25;3.78;;;27.50;99.90;;;;;;5015632;28;20037;-45
2022/11/04 11:28:02;;;;;;;4.93;2.75;;;27.50;99.90;;;;;;4998098;28;20022;-46
2022/11/04 11:30:30;;;;;;;4.07;2.97;;;27.50;99.90;;;;;;5023036;28;20017;-46
2022/11/04 11:33:05;;;;;;;4.75;3.22;;;27.50;99.90;;;;;;5024658;28;20025;-47
2022/11/04 11:35:40;;;;;;;6.22;3.45;;;27.50;99.90;;;;;;5024673;28;20021;-47
2022/11/04 11:38:28;;;;;;;5.13;3.58;;;27.50;99.90;;;;;;5028522;28;20040;-47
2022/11/04 11:41:10;;;;;;;5.15;3.10;;;27.50;99.90;;;;;;5013003;28;20441;-46
2022/11/04 11:43:39;;;;;;;7.45;3.40;;;27.50;99.90;;;;;;5015230;28;20026;-46
2022/11/04 11:46:06;;;;;;;5.93;3.38;;;27.40;99.90;;;;;;5015437;28;20034;-46
2022/11/04 11:48:39;;;;;;;5.18;3.20;;;27.40;99.90;;;;;;5015393;28;20050;-46
2022/11/04 11:51:06;;;;;;;6.10;3.70;;;27.40;99.90;;;;;;5022783;28;20033;-46
2022/11/04 11:53:34;;;;;;;8.55;3.08;;;27.40;99.90;;;;;;5022361;28;20092;-46
2022/11/04 11:56:17;;;;;;;5.07;3.20;;;27.40;99.90;;;;;;5030078;28;20071;-46
2022/11/04 11:59:01;;;;;;;9.15;3.17;;;27.40;99.90;;;;;;5028098;28;20028;-47
2022/11/04 12:01:41;;;;;;;5.20;2.97;;;27.40;99.90;;;;;;5023285;28;20128;-47
2022/11/04 12:04:07;;;;;;;7.38;3.35;;;27.40;99.90;;;;;;5023338;28;20030;-47
2022/11/04 12:07:05;;;;;;;4.85;1.65;;;27.40;99.90;;;;;;5032717;28;20107;-48
2022/11/04 12:10:09;;;;;;;2.58;1.05;;;27.50;99.90;;;;;;5031364;28;20022;-48
2022/11/04 12:12:58;;;;;;;3.00;0.60;;;27.40;99.90;;;;;;4931772;29;20207;-48
2022/11/04 12:15:58;;;;;;;3.00;0.40;;;27.50;99.90;;;;;;5028700;28;20087;-49
2022/11/04 12:18:27;;;;;;;2.92;0.38;;;27.40;99.90;;;;;;5031485;28;20084;-51
2022/11/04 12:21:07;;;;;;;4.55;0.50;;;27.50;99.90;;;;;;5031358;28;20029;-48
2022/11/04 12:23:43;;;;;;;4.13;0.73;;;27.50;99.90;;;;;;5031414;28;20021;-47
2022/11/04 12:26:45;;;;;;;3.13;0.20;;;27.50;99.90;;;;;;5031540;28;20033;-48
2022/11/04 12:29:10;;;;;;;0.73;0.43;;;27.60;99.90;;;;;;4980853;28;20099;-47
2022/11/04 12:32:09;;;;;;;3.97;0.40;;;27.60;99.90;;;;;;5028434;28;20060;-48
2022/11/04 12:34:40;;;;;;;4.47;0.88;;;27.70;99.90;;;;;;5010794;28;20033;-48
2022/11/04 12:37:31;;;;;;;0.93;0.43;;;27.80;99.90;;;;;;5013531;28;20026;-47
2022/11/04 12:40:11;;;;;;;4.80;2.03;;;27.80;99.90;;;;;;4998525;28;20018;-48
2022/11/04 12:43:13;;;;;;;2.03;0.47;;;27.90;99.90;;;;;;5012655;28;20037;-46
2022/11/04 12:45:57;;;;;;;1.40;0.50;;;28.00;99.90;;;;;;5011015;28;20565;-47
2022/11/04 12:49:01;;;;;;;4.38;0.52;;;28.00;99.90;;;;;;4990223;28;20520;-48
2022/11/04 12:51:33;;;;;;;1.15;0.30;;;28.10;99.90;;;;;;4992010;28;20101;-47
2022/11/04 12:54:05;;;;;;;0.75;0.20;;;28.10;99.90;;;;;;5009235;28;20454;-47
2022/11/04 12:56:39;;;;;;;0.77;0.20;;;28.20;99.90;;;;;;4996045;28;20021;-48
2022/11/04 12:59:22;;;;;;;4.47;0.20;;;28.20;99.90;;;;;;5018948;28;20360;-47
2022/11/04 13:01:54;;;;;;;0.63;0.20;;;28.30;99.90;;;;;;4967871;28;1196711;-47
2022/11/04 13:04:31;;;;;;;0.20;0.10;;;28.40;99.90;;;;;;5014586;28;20017;-47
2022/11/04 13:07:02;;;;;;;2.90;0.30;;;28.50;99.90;;;;;;5011675;28;20479;-46
2022/11/04 13:09:37;;;;;;;2.20;1.10;;;28.60;99.90;;;;;;5016042;28;20846;-47
2022/11/04 13:12:17;;;;;;;7.78;2.22;;;28.60;99.90;;;;;;5011054;28;20033;-47
2022/11/04 13:14:51;;;;;;;2.47;1.85;;;28.70;99.90;;;;;;5007237;28;20025;-47
2022/11/04 13:17:26;;;;;;;3.47;0.50;;;28.70;99.90;;;;;;5005338;28;20081;-47
2022/11/04 13:19:59;;;;;;;4.93;0.60;;;28.80;99.90;;;;;;5004272;28;20027;-47
2022/11/04 13:22:30;;;;;;;2.20;1.02;;;28.80;99.90;;;;;;5009376;28;20029;-47
2022/11/04 13:25:26;;;;;;;2.03;0.20;;;28.90;99.90;;;;;;5017536;28;20038;-46
2022/11/04 13:27:52;;;;;;;3.55;0.47;;;28.90;99.90;;;;;;5016944;28;20364;-47
2022/11/04 13:30:20;;;;;;;2.45;1.52;;;29.00;99.90;;;;;;5020498;28;20029;-47
2022/11/04 13:32:48;;;;;;;3.47;2.10;;;29.00;99.90;;;;;;5008756;28;20043;-47
2022/11/04 13:35:39;;;;;;;1.95;0.70;;;29.00;99.90;;;;;;4989277;28;20057;-47
2022/11/04 13:38:15;;;;;;;2.03;0.60;;;29.10;99.90;;;;;;5025107;28;20022;-47
2022/11/04 13:41:00;;;;;;;0.45;0.10;;;29.10;99.90;;;;;;5013247;28;20026;-47